Time;durP1;ratioP1;P1;durP2;ratioP2;P2;SDS_P1;SDS_P2;PMS_P1;PMS_P2;Temp;Humidity;BMP_temperature;BMP_pressure;BME280_temperature;BME280_humidity;BME280_pressure;Samples;Min_cycle;Max_cycle;Signal;HPM_P1;HPM_P2
2022/04/13 00:02:15;;;;;;;14.95;11.43;;;;;;;;;;5035065;28;20719;-62
2022/04/13 00:04:43;;;;;;;13.27;10.75;;;;;;;;;;5059772;28;20144;-62
2022/04/13 00:07:09;;;;;;;15.70;12.57;;;;;;;;;;5050705;28;20518;-62
2022/04/13 00:09:35;;;;;;;14.05;11.60;;;;;;;;;;5055839;28;20045;-61
2022/04/13 00:12:03;;;;;;;14.20;11.40;;;;;;;;;;5053791;28;20521;-62
2022/04/13 00:14:29;;;;;;;15.07;11.60;;;;;;;;;;5072566;28;20061;-61
2022/04/13 00:16:55;;;;;;;14.40;12.07;;;;;;;;;;5053950;28;20133;-63
2022/04/13 00:19:23;;;;;;;14.63;11.63;;;;;;;;;;5052962;28;20415;-62
2022/04/13 00:21:50;;;;;;;12.80;11.38;;;;;;;;;;5051348;28;20041;-62
2022/04/13 00:24:16;;;;;;;15.38;12.50;;;;;;;;;;5051407;28;20061;-62
2022/04/13 00:26:42;;;;;;;13.30;11.48;;;;;;;;;;5051941;28;20040;-61
2022/04/13 00:29:09;;;;;;;13.95;11.68;;;;;;;;;;5054560;28;20037;-61
2022/04/13 00:31:35;;;;;;;13.68;11.30;;;;;;;;;;5061028;28;20052;-62
2022/04/13 00:34:02;;;;;;;14.15;12.40;;;;;;;;;;5035742;28;20045;-62
2022/04/13 00:36:28;;;;;;;17.08;12.18;;;;;;;;;;5055938;28;20198;-61
2022/04/13 00:38:54;;;;;;;14.00;12.45;;;;;;;;;;5051208;28;20514;-63
2022/04/13 00:41:21;;;;;;;14.52;12.25;;;;;;;;;;5033585;28;20048;-62
2022/04/13 00:44:00;;;;;;;15.70;12.23;;;;;;;;;;5057452;28;20558;-62
2022/04/13 00:46:27;;;;;;;16.55;13.05;;;;;;;;;;5036616;28;20371;-63
2022/04/13 00:48:53;;;;;;;17.15;12.18;;;;;;;;;;5051864;28;20040;-62
2022/04/13 00:51:19;;;;;;;13.07;11.50;;;;;;;;;;5048285;28;20040;-60
2022/04/13 00:53:46;;;;;;;14.93;12.32;;;;;;;;;;5050904;28;20036;-60
2022/04/13 00:56:13;;;;;;;13.50;12.00;;;;;;;;;;5052938;28;20075;-61
2022/04/13 00:58:40;;;;;;;16.83;13.27;;;;;;;;;;5057561;28;20107;-60
2022/04/13 01:01:07;;;;;;;14.35;12.85;;;;;;;;;;5052356;28;20416;-61
2022/04/13 01:03:36;;;;;;;14.23;12.73;;;;;;;;;;5055041;28;20089;-62
2022/04/13 01:06:03;;;;;;;16.13;13.65;;;;;;;;;;5052664;28;20046;-61
2022/04/13 01:08:29;;;;;;;17.35;13.00;;;;;;;;;;5054717;28;20040;-62
2022/04/13 01:10:56;;;;;;;14.55;12.75;;;;;;;;;;5054670;28;20037;-61
2022/04/13 01:13:22;;;;;;;15.13;12.88;;;;;;;;;;5052644;28;20067;-61
2022/04/13 01:15:48;;;;;;;14.70;13.13;;;;;;;;;;5054408;28;20052;-61
2022/04/13 01:18:14;;;;;;;14.68;13.15;;;;;;;;;;5072922;28;20037;-61
2022/04/13 01:20:49;;;;;;;13.70;12.30;;;;;;;;;;5055740;28;20029;-60
2022/04/13 01:23:15;;;;;;;14.20;12.70;;;;;;;;;;5055661;28;20102;-60
2022/04/13 01:25:47;;;;;;;16.58;13.35;;;;;;;;;;5059500;28;20102;-61
2022/04/13 01:28:14;;;;;;;16.52;12.93;;;;;;;;;;5054703;28;20033;-60
2022/04/13 01:30:40;;;;;;;15.32;13.02;;;;;;;;;;5050942;28;20122;-61
2022/04/13 01:33:06;;;;;;;15.20;12.65;;;;;;;;;;5073455;28;20035;-61
2022/04/13 01:35:33;;;;;;;15.23;12.95;;;;;;;;;;5050491;28;20038;-61
2022/04/13 01:37:59;;;;;;;14.65;13.10;;;;;;;;;;5052519;28;20130;-61
2022/04/13 01:40:25;;;;;;;15.68;13.10;;;;;;;;;;5055304;28;20071;-61
2022/04/13 01:42:51;;;;;;;17.20;12.88;;;;;;;;;;5053575;28;20045;-61
2022/04/13 01:45:20;;;;;;;15.60;14.00;;;;;;;;;;5057362;28;20041;-60
2022/04/13 01:47:50;;;;;;;14.52;12.52;;;;;;;;;;5073618;28;20410;-60
2022/04/13 01:50:17;;;;;;;14.98;12.73;;;;;;;;;;5054049;28;20446;-60
2022/04/13 01:52:44;;;;;;;15.82;13.02;;;;;;;;;;5050971;28;20085;-61
2022/04/13 01:55:10;;;;;;;16.35;12.90;;;;;;;;;;5059001;28;20028;-61
2022/04/13 01:57:37;;;;;;;14.73;12.65;;;;;;;;;;5056633;28;20074;-60
2022/04/13 02:00:04;;;;;;;13.93;12.32;;;;;;;;;;5060697;28;20487;-61
2022/04/13 02:02:30;;;;;;;16.83;12.70;;;;;;;;;;5079872;28;20091;-60
2022/04/13 02:04:56;;;;;;;16.67;12.73;;;;;;;;;;5079644;28;20038;-60
2022/04/13 02:07:22;;;;;;;15.10;12.52;;;;;;;;;;5033563;28;20186;-60
2022/04/13 02:09:48;;;;;;;14.05;12.40;;;;;;;;;;5072511;28;20487;-60
2022/04/13 02:12:14;;;;;;;14.40;11.75;;;;;;;;;;5049198;28;20041;-61
2022/04/13 02:14:41;;;;;;;15.05;11.90;;;;;;;;;;5049896;28;20044;-61
2022/04/13 02:17:07;;;;;;;15.25;12.00;;;;;;;;;;5053007;28;20483;-60
2022/04/13 02:19:33;;;;;;;15.50;12.18;;;;;;;;;;5058106;28;20048;-62
2022/04/13 02:21:59;;;;;;;13.48;11.68;;;;;;;;;;5054071;28;20942;-61
2022/04/13 02:24:25;;;;;;;18.00;13.38;;;;;;;;;;5054528;28;20555;-60
2022/04/13 02:26:51;;;;;;;15.32;11.82;;;;;;;;;;5056366;28;20118;-60
2022/04/13 02:29:17;;;;;;;14.85;11.40;;;;;;;;;;5053464;28;20040;-61
2022/04/13 02:31:43;;;;;;;14.18;11.80;;;;;;;;;;5054911;28;20045;-61
2022/04/13 02:34:09;;;;;;;14.18;12.65;;;;;;;;;;5053270;28;20055;-61
2022/04/13 02:36:35;;;;;;;16.95;13.00;;;;;;;;;;5053689;28;20413;-59
2022/04/13 02:39:01;;;;;;;15.07;11.98;;;;;;;;;;5052748;28;20048;-61
2022/04/13 02:41:27;;;;;;;14.73;12.43;;;;;;;;;;5074738;28;20068;-59
2022/04/13 02:43:53;;;;;;;13.95;12.48;;;;;;;;;;5053701;28;20063;-60
2022/04/13 02:46:19;;;;;;;16.05;13.25;;;;;;;;;;5060321;28;20043;-60
2022/04/13 02:48:46;;;;;;;14.80;12.25;;;;;;;;;;5075802;28;20084;-61
2022/04/13 02:51:12;;;;;;;14.93;11.13;;;;;;;;;;5042883;28;20090;-60
2022/04/13 02:53:38;;;;;;;16.35;11.75;;;;;;;;;;5056355;28;21268;-63
2022/04/13 02:56:04;;;;;;;15.13;11.30;;;;;;;;;;5051719;28;20038;-61
2022/04/13 02:58:30;;;;;;;15.02;11.15;;;;;;;;;;5056505;28;20080;-60
2022/04/13 03:00:56;;;;;;;17.70;11.30;;;;;;;;;;5052332;28;20029;-61
2022/04/13 03:03:22;;;;;;;14.43;11.20;;;;;;;;;;5048260;28;20233;-59
2022/04/13 03:05:48;;;;;;;13.90;10.68;;;;;;;;;;5055116;28;20509;-62
2022/04/13 03:08:14;;;;;;;14.45;10.77;;;;;;;;;;5048993;28;20041;-61
2022/04/13 03:10:40;;;;;;;13.45;11.23;;;;;;;;;;5052780;28;20079;-61
2022/04/13 03:13:06;;;;;;;13.15;11.25;;;;;;;;;;5047149;28;20434;-62
2022/04/13 03:15:32;;;;;;;15.65;11.30;;;;;;;;;;5053407;28;20068;-61
2022/04/13 03:17:58;;;;;;;14.05;11.25;;;;;;;;;;5047055;28;20041;-62
2022/04/13 03:20:24;;;;;;;12.82;11.45;;;;;;;;;;5034488;28;20075;-62
2022/04/13 03:22:50;;;;;;;12.18;10.45;;;;;;;;;;5051027;28;20094;-61
2022/04/13 03:25:17;;;;;;;13.27;11.10;;;;;;;;;;5050377;28;20399;-61
2022/04/13 03:27:43;;;;;;;15.80;11.48;;;;;;;;;;5073344;28;20033;-61
2022/04/13 03:30:09;;;;;;;13.18;11.15;;;;;;;;;;5053531;28;20044;-62
2022/04/13 03:32:38;;;;;;;14.90;11.32;;;;;;;;;;5054859;28;20047;-61
2022/04/13 03:35:08;;;;;;;16.33;11.18;;;;;;;;;;5052285;28;20119;-63
2022/04/13 03:37:34;;;;;;;15.15;11.07;;;;;;;;;;5055014;28;20033;-60
2022/04/13 03:40:00;;;;;;;14.93;11.85;;;;;;;;;;5055404;28;20041;-60
2022/04/13 03:42:26;;;;;;;14.75;12.23;;;;;;;;;;5052904;28;20439;-62
2022/04/13 03:44:52;;;;;;;13.75;12.05;;;;;;;;;;5051042;28;20099;-61
2022/04/13 03:47:19;;;;;;;15.00;11.88;;;;;;;;;;5054103;28;20071;-61
2022/04/13 03:49:45;;;;;;;15.30;11.95;;;;;;;;;;5053419;28;20055;-61
2022/04/13 03:52:11;;;;;;;15.77;11.98;;;;;;;;;;5076088;28;20482;-62
2022/04/13 03:54:37;;;;;;;17.45;12.52;;;;;;;;;;5054666;28;20044;-61
2022/04/13 03:57:06;;;;;;;15.88;12.57;;;;;;;;;;5069331;28;20462;-62
2022/04/13 03:59:32;;;;;;;18.02;12.05;;;;;;;;;;5065516;28;20042;-62
2022/04/13 04:01:58;;;;;;;18.15;12.57;;;;;;;;;;5055020;28;20434;-61
2022/04/13 04:04:24;;;;;;;18.25;13.00;;;;;;;;;;5055264;28;20143;-60
2022/04/13 04:06:50;;;;;;;16.40;12.90;;;;;;;;;;5054360;28;20049;-61
2022/04/13 04:09:16;;;;;;;17.80;13.23;;;;;;;;;;5055098;28;20037;-61
2022/04/13 04:11:42;;;;;;;20.65;14.32;;;;;;;;;;5059623;28;20037;-60
2022/04/13 04:14:08;;;;;;;20.73;14.18;;;;;;;;;;5055062;28;20104;-60
2022/04/13 04:16:34;;;;;;;20.30;13.77;;;;;;;;;;5058781;28;20486;-60
2022/04/13 04:19:00;;;;;;;19.42;14.02;;;;;;;;;;5053954;28;20036;-60
2022/04/13 04:21:26;;;;;;;19.15;13.95;;;;;;;;;;5056993;28;20090;-60
2022/04/13 04:23:52;;;;;;;19.05;14.00;;;;;;;;;;5057159;28;20080;-60
2022/04/13 04:26:18;;;;;;;22.27;14.30;;;;;;;;;;5059157;28;20040;-61
2022/04/13 04:28:44;;;;;;;18.00;14.50;;;;;;;;;;5052951;28;20056;-61
2022/04/13 04:31:10;;;;;;;21.55;15.32;;;;;;;;;;5054513;28;20041;-59
2022/04/13 04:33:36;;;;;;;20.10;14.02;;;;;;;;;;5052779;28;20041;-60
2022/04/13 04:36:03;;;;;;;22.25;14.80;;;;;;;;;;5054563;28;20037;-60
2022/04/13 04:38:32;;;;;;;20.63;14.68;;;;;;;;;;5051258;28;20056;-61
2022/04/13 04:40:58;;;;;;;20.92;14.90;;;;;;;;;;5053751;28;20083;-60
2022/04/13 04:43:24;;;;;;;23.75;14.77;;;;;;;;;;5057612;28;20132;-60
2022/04/13 04:45:51;;;;;;;20.35;15.25;;;;;;;;;;5053828;28;20115;-61
2022/04/13 04:48:17;;;;;;;20.50;15.32;;;;;;;;;;5050172;28;20091;-62
2022/04/13 04:50:43;;;;;;;21.30;15.27;;;;;;;;;;5075714;28;20045;-61
2022/04/13 04:53:09;;;;;;;21.77;15.52;;;;;;;;;;5054578;28;20049;-60
2022/04/13 04:55:35;;;;;;;20.27;14.88;;;;;;;;;;5052429;28;20179;-61
2022/04/13 04:58:03;;;;;;;20.80;16.10;;;;;;;;;;5069320;28;20068;-62
2022/04/13 05:00:35;;;;;;;21.25;15.77;;;;;;;;;;5057271;28;20044;-61
2022/04/13 05:03:01;;;;;;;24.58;15.95;;;;;;;;;;5049114;28;20049;-63
2022/04/13 05:05:27;;;;;;;23.50;15.10;;;;;;;;;;5049727;28;20044;-62
2022/04/13 05:07:53;;;;;;;19.92;15.15;;;;;;;;;;5049910;28;20550;-61
2022/04/13 05:10:19;;;;;;;22.60;15.85;;;;;;;;;;5054742;28;20127;-61
2022/04/13 05:12:48;;;;;;;22.27;15.48;;;;;;;;;;5050740;28;20495;-62
2022/04/13 05:15:14;;;;;;;19.95;15.20;;;;;;;;;;5050058;28;20043;-61
2022/04/13 05:17:41;;;;;;;21.92;15.75;;;;;;;;;;5052859;28;20043;-61
2022/04/13 05:20:08;;;;;;;26.58;15.32;;;;;;;;;;5053968;28;20037;-61
2022/04/13 05:22:34;;;;;;;20.63;16.38;;;;;;;;;;5055398;28;20045;-62
2022/04/13 05:25:10;;;;;;;21.13;15.63;;;;;;;;;;5051825;28;20063;-61
2022/04/13 05:27:37;;;;;;;21.92;15.63;;;;;;;;;;5051661;28;20044;-61
2022/04/13 05:30:04;;;;;;;20.40;15.75;;;;;;;;;;5051958;28;20040;-62
2022/04/13 05:32:30;;;;;;;22.65;15.93;;;;;;;;;;5053285;28;20107;-62
2022/04/13 05:35:01;;;;;;;25.55;14.75;;;;;;;;;;5054209;28;20033;-62
2022/04/13 05:37:27;;;;;;;19.52;15.05;;;;;;;;;;5051206;28;20491;-62
2022/04/13 05:39:53;;;;;;;22.02;15.60;;;;;;;;;;5048816;28;20048;-61
2022/04/13 05:42:25;;;;;;;20.40;15.18;;;;;;;;;;5050811;28;20467;-61
2022/04/13 05:44:52;;;;;;;17.83;15.00;;;;;;;;;;5048281;28;20032;-61
2022/04/13 05:47:18;;;;;;;19.02;14.75;;;;;;;;;;5051505;28;20124;-61
2022/04/13 05:49:45;;;;;;;19.20;15.10;;;;;;;;;;5047481;28;20037;-61
2022/04/13 05:52:11;;;;;;;20.27;16.08;;;;;;;;;;5053983;28;20458;-61
2022/04/13 05:54:37;;;;;;;20.42;14.98;;;;;;;;;;5049709;28;20321;-61
2022/04/13 05:57:03;;;;;;;21.80;16.25;;;;;;;;;;5051774;28;20550;-62
2022/04/13 05:59:29;;;;;;;22.48;15.77;;;;;;;;;;5053773;28;20095;-61
2022/04/13 06:01:55;;;;;;;23.00;15.50;;;;;;;;;;5051303;28;20037;-63
2022/04/13 06:04:23;;;;;;;22.25;15.68;;;;;;;;;;5035865;28;20048;-61
2022/04/13 06:06:50;;;;;;;19.20;14.68;;;;;;;;;;5071911;28;20044;-63
2022/04/13 06:09:16;;;;;;;23.77;14.82;;;;;;;;;;5048623;28;20048;-62
2022/04/13 06:11:42;;;;;;;19.83;13.38;;;;;;;;;;5050965;28;20040;-62
2022/04/13 06:14:08;;;;;;;21.20;14.05;;;;;;;;;;5051504;28;20444;-61
2022/04/13 06:16:34;;;;;;;20.10;14.05;;;;;;;;;;5054738;28;20040;-62
2022/04/13 06:19:00;;;;;;;21.27;14.80;;;;;;;;;;5058043;28;20105;-61
2022/04/13 06:21:26;;;;;;;23.05;14.98;;;;;;;;;;5055063;28;20043;-62
2022/04/13 06:23:52;;;;;;;22.45;15.40;;;;;;;;;;5051205;28;20510;-62
2022/04/13 06:26:18;;;;;;;19.25;13.70;;;;;;;;;;5055987;28;20045;-61
2022/04/13 06:28:44;;;;;;;20.75;14.60;;;;;;;;;;5051449;28;20048;-62
2022/04/13 06:31:11;;;;;;;21.17;14.43;;;;;;;;;;5051674;28;20037;-62
2022/04/13 06:33:37;;;;;;;18.65;13.63;;;;;;;;;;5051841;28;20549;-61
2022/04/13 06:36:05;;;;;;;23.45;14.38;;;;;;;;;;5049868;28;20064;-61
2022/04/13 06:38:31;;;;;;;19.77;13.93;;;;;;;;;;5052546;28;20434;-62
2022/04/13 06:40:57;;;;;;;20.23;14.25;;;;;;;;;;5050798;28;20045;-62
2022/04/13 06:43:23;;;;;;;21.00;13.65;;;;;;;;;;5046876;28;20033;-63
2022/04/13 06:45:49;;;;;;;17.23;13.30;;;;;;;;;;5049892;28;20037;-62
2022/04/13 06:48:15;;;;;;;19.65;13.75;;;;;;;;;;5049674;28;20124;-62
2022/04/13 06:50:41;;;;;;;19.17;12.90;;;;;;;;;;5055390;28;20051;-61
2022/04/13 06:53:07;;;;;;;21.45;13.65;;;;;;;;;;5055631;28;20036;-62
2022/04/13 06:55:37;;;;;;;15.20;12.40;;;;;;;;;;5052766;28;20424;-61
2022/04/13 06:58:03;;;;;;;19.02;11.70;;;;;;;;;;5047651;28;20517;-62
2022/04/13 07:00:30;;;;;;;15.88;12.00;;;;;;;;;;5054975;28;20087;-62
2022/04/13 07:02:57;;;;;;;18.30;12.68;;;;;;;;;;5054182;28;20068;-62
2022/04/13 07:05:27;;;;;;;19.50;12.88;;;;;;;;;;5052163;28;20039;-63
2022/04/13 07:07:53;;;;;;;20.60;13.70;;;;;;;;;;5074478;28;20407;-61
2022/04/13 07:10:19;;;;;;;19.38;14.10;;;;;;;;;;5049500;28;20042;-62
2022/04/13 07:12:45;;;;;;;22.13;14.02;;;;;;;;;;5058147;28;20037;-62
2022/04/13 07:15:12;;;;;;;21.10;14.27;;;;;;;;;;5053382;28;20039;-62
2022/04/13 07:17:38;;;;;;;22.80;14.57;;;;;;;;;;5057850;28;20076;-63
2022/04/13 07:20:05;;;;;;;22.20;13.27;;;;;;;;;;5050427;28;20470;-62
2022/04/13 07:22:31;;;;;;;20.77;14.65;;;;;;;;;;5053212;28;20479;-63
2022/04/13 07:24:57;;;;;;;28.02;13.70;;;;;;;;;;5059508;28;20131;-63
2022/04/13 07:27:23;;;;;;;19.90;13.90;;;;;;;;;;5077225;28;20064;-62
2022/04/13 07:29:49;;;;;;;21.67;13.55;;;;;;;;;;5053486;28;20049;-63
2022/04/13 07:32:15;;;;;;;18.75;13.45;;;;;;;;;;5028228;28;20534;-62
2022/04/13 07:34:41;;;;;;;20.27;13.27;;;;;;;;;;5047562;28;20033;-60
2022/04/13 07:37:07;;;;;;;18.20;11.98;;;;;;;;;;5049406;28;20044;-61
2022/04/13 07:39:34;;;;;;;19.02;12.38;;;;;;;;;;5057678;28;20049;-61
2022/04/13 07:42:00;;;;;;;19.35;11.15;;;;;;;;;;5057224;28;20091;-61
2022/04/13 07:44:26;;;;;;;16.83;11.82;;;;;;;;;;5058720;28;20085;-61
2022/04/13 07:46:52;;;;;;;17.73;10.70;;;;;;;;;;5053760;28;20044;-61
2022/04/13 07:49:18;;;;;;;18.33;12.02;;;;;;;;;;5056962;28;20040;-61
2022/04/13 07:51:44;;;;;;;17.25;10.98;;;;;;;;;;5058146;28;20048;-61
2022/04/13 07:54:10;;;;;;;20.80;10.85;;;;;;;;;;5068536;28;20037;-61
2022/04/13 07:56:36;;;;;;;13.48;10.27;;;;;;;;;;5056720;28;20044;-61
2022/04/13 07:59:04;;;;;;;18.60;9.02;;;;;;;;;;5056587;28;20120;-62
2022/04/13 08:01:30;;;;;;;12.13;6.70;;;;;;;;;;5061663;28;20075;-60
2022/04/13 08:03:56;;;;;;;13.95;7.50;;;;;;;;;;5054543;28;20041;-60
2022/04/13 08:06:22;;;;;;;16.17;8.27;;;;;;;;;;5059973;28;20435;-63
2022/04/13 08:08:48;;;;;;;13.98;8.40;;;;;;;;;;5036044;28;20043;-62
2022/04/13 08:11:14;;;;;;;13.77;8.43;;;;;;;;;;5051874;28;20344;-62
2022/04/13 08:13:40;;;;;;;13.55;9.43;;;;;;;;;;5057471;28;20040;-62
2022/04/13 08:16:06;;;;;;;15.30;8.98;;;;;;;;;;5061223;28;20048;-62
2022/04/13 08:18:32;;;;;;;13.00;9.07;;;;;;;;;;5057451;28;20048;-63
2022/04/13 08:20:59;;;;;;;18.20;10.70;;;;;;;;;;5061899;28;20111;-62
2022/04/13 08:23:25;;;;;;;16.13;10.60;;;;;;;;;;5055715;28;20494;-63
2022/04/13 08:25:51;;;;;;;16.17;11.52;;;;;;;;;;5064556;28;20044;-62
2022/04/13 08:28:17;;;;;;;17.42;12.00;;;;;;;;;;5056640;28;20533;-63
2022/04/13 08:30:43;;;;;;;15.93;12.82;;;;;;;;;;5060855;28;20040;-63
2022/04/13 08:33:09;;;;;;;20.13;13.35;;;;;;;;;;5064362;28;20569;-62
2022/04/13 08:35:35;;;;;;;22.95;13.15;;;;;;;;;;5058471;28;20052;-63
2022/04/13 08:38:01;;;;;;;17.00;11.60;;;;;;;;;;5058580;28;20033;-64
2022/04/13 08:40:31;;;;;;;17.20;12.63;;;;;;;;;;5058557;28;20045;-62
2022/04/13 08:42:57;;;;;;;17.38;12.77;;;;;;;;;;5054338;28;20045;-63
2022/04/13 08:45:28;;;;;;;20.35;13.68;;;;;;;;;;5063072;28;20064;-62
2022/04/13 08:47:56;;;;;;;20.25;12.52;;;;;;;;;;5056342;28;20033;-62
2022/04/13 08:50:30;;;;;;;17.17;11.73;;;;;;;;;;5062687;28;20044;-62
2022/04/13 08:53:02;;;;;;;15.68;11.13;;;;;;;;;;5060920;28;20410;-62
2022/04/13 08:55:29;;;;;;;19.65;12.15;;;;;;;;;;5058915;28;20048;-63
2022/04/13 08:58:01;;;;;;;15.18;11.30;;;;;;;;;;5059688;28;20482;-62
2022/04/13 09:00:28;;;;;;;18.42;11.60;;;;;;;;;;5062985;28;20063;-61
2022/04/13 09:03:03;;;;;;;18.15;12.50;;;;;;;;;;5058290;28;20059;-63
2022/04/13 09:05:30;;;;;;;18.88;12.15;;;;;;;;;;5063737;28;20044;-62
2022/04/13 09:08:10;;;;;;;15.98;11.15;;;;;;;;;;5058116;28;20046;-62
2022/04/13 09:10:36;;;;;;;16.05;10.90;;;;;;;;;;5054486;28;20044;-62
2022/04/13 09:13:03;;;;;;;19.30;12.07;;;;;;;;;;5057611;28;20398;-63
2022/04/13 09:15:29;;;;;;;14.70;10.82;;;;;;;;;;5054766;28;20085;-63
2022/04/13 09:17:55;;;;;;;15.60;11.25;;;;;;;;;;5063243;28;20041;-62
2022/04/13 09:20:22;;;;;;;16.75;11.48;;;;;;;;;;5051066;28;20071;-63
2022/04/13 09:22:50;;;;;;;15.57;11.43;;;;;;;;;;5050858;28;20041;-62
2022/04/13 09:25:20;;;;;;;16.42;10.20;;;;;;;;;;5057127;28;20052;-61
2022/04/13 09:27:47;;;;;;;13.63;10.38;;;;;;;;;;5061137;28;20040;-62
2022/04/13 09:30:13;;;;;;;15.25;9.68;;;;;;;;;;5059905;28;20106;-63
2022/04/13 09:32:39;;;;;;;14.93;10.68;;;;;;;;;;5050583;28;20037;-63
2022/04/13 09:35:07;;;;;;;18.55;11.40;;;;;;;;;;5070573;28;20051;-63
2022/04/13 09:37:34;;;;;;;16.60;9.27;;;;;;;;;;5056994;28;20110;-63
2022/04/13 09:40:00;;;;;;;17.15;9.32;;;;;;;;;;5061341;28;20116;-61
2022/04/13 09:42:27;;;;;;;12.85;8.63;;;;;;;;;;5038887;28;20047;-63
2022/04/13 09:44:57;;;;;;;14.35;9.30;;;;;;;;;;5057176;28;20125;-61
2022/04/13 09:47:29;;;;;;;12.45;8.13;;;;;;;;;;5059146;28;20390;-62
2022/04/13 09:49:56;;;;;;;12.77;7.43;;;;;;;;;;5055108;28;20045;-62
2022/04/13 09:52:34;;;;;;;11.25;7.45;;;;;;;;;;5062798;28;20045;-62
2022/04/13 09:55:04;;;;;;;13.40;8.00;;;;;;;;;;5053882;28;20445;-62
2022/04/13 09:57:30;;;;;;;13.38;7.75;;;;;;;;;;5055846;28;20094;-61
2022/04/13 10:00:00;;;;;;;10.80;7.18;;;;;;;;;;5053847;28;20045;-62
2022/04/13 10:02:36;;;;;;;14.02;8.13;;;;;;;;;;5055440;28;20041;-62
2022/04/13 10:05:06;;;;;;;15.27;8.77;;;;;;;;;;5057698;28;20396;-61
2022/04/13 10:07:33;;;;;;;14.27;8.93;;;;;;;;;;5056257;28;20047;-62
2022/04/13 10:09:59;;;;;;;14.05;8.35;;;;;;;;;;5059122;28;20115;-61
2022/04/13 10:12:25;;;;;;;11.00;7.43;;;;;;;;;;5057618;28;20041;-62
2022/04/13 10:14:52;;;;;;;10.45;7.15;;;;;;;;;;5057648;28;20575;-62
2022/04/13 10:17:20;;;;;;;9.20;6.72;;;;;;;;;;5079820;28;20040;-62
2022/04/13 10:19:57;;;;;;;11.30;7.10;;;;;;;;;;5059280;28;20064;-62
2022/04/13 10:22:23;;;;;;;11.77;6.90;;;;;;;;;;5073665;28;20503;-62
2022/04/13 10:24:50;;;;;;;10.27;6.90;;;;;;;;;;5056631;28;20075;-62
2022/04/13 10:27:18;;;;;;;10.98;6.95;;;;;;;;;;5054505;28;20040;-62
2022/04/13 10:29:50;;;;;;;10.93;7.30;;;;;;;;;;5058171;28;20479;-62
2022/04/13 10:32:17;;;;;;;10.60;6.75;;;;;;;;;;5057997;28;20379;-62
2022/04/13 10:34:43;;;;;;;11.38;7.47;;;;;;;;;;5051917;28;20123;-62
2022/04/13 10:37:10;;;;;;;12.07;7.13;;;;;;;;;;5054539;28;20036;-62
2022/04/13 10:39:37;;;;;;;11.65;6.97;;;;;;;;;;5057787;28;20045;-62
2022/04/13 10:42:03;;;;;;;12.27;7.30;;;;;;;;;;5056471;28;20115;-62
2022/04/13 10:44:36;;;;;;;11.40;6.88;;;;;;;;;;5054202;28;20125;-61
2022/04/13 10:47:06;;;;;;;11.23;6.30;;;;;;;;;;5062229;28;20457;-62
2022/04/13 10:49:51;;;;;;;8.98;5.78;;;;;;;;;;5057333;28;20044;-61
2022/04/13 10:52:21;;;;;;;7.60;4.90;;;;;;;;;;5058149;28;20040;-62
2022/04/13 10:54:49;;;;;;;9.43;4.88;;;;;;;;;;5059874;28;20500;-62
2022/04/13 10:57:17;;;;;;;8.23;5.25;;;;;;;;;;5058108;28;20544;-61
2022/04/13 10:59:54;;;;;;;7.38;4.65;;;;;;;;;;5042627;28;20068;-62
2022/04/13 11:02:24;;;;;;;8.60;5.40;;;;;;;;;;5055401;28;20036;-62
2022/04/13 11:04:51;;;;;;;7.43;4.50;;;;;;;;;;5057228;28;20052;-63
2022/04/13 11:07:18;;;;;;;9.35;5.25;;;;;;;;;;5062286;28;20032;-62
2022/04/13 11:09:44;;;;;;;8.13;4.97;;;;;;;;;;5057359;28;20047;-62
2022/04/13 11:12:10;;;;;;;8.25;4.43;;;;;;;;;;5071822;28;20038;-63
2022/04/13 11:14:55;;;;;;;9.07;4.28;;;;;;;;;;5049704;28;20075;-63
2022/04/13 11:17:21;;;;;;;8.13;4.40;;;;;;;;;;5039663;28;20056;-62
2022/04/13 11:19:48;;;;;;;7.55;4.40;;;;;;;;;;5055829;28;20044;-62
2022/04/13 11:22:19;;;;;;;7.18;3.85;;;;;;;;;;5057370;28;20033;-62
2022/04/13 11:24:48;;;;;;;6.13;3.28;;;;;;;;;;5060324;28;20052;-61
2022/04/13 11:27:15;;;;;;;4.88;3.00;;;;;;;;;;5055670;28;20111;-62
2022/04/13 11:29:42;;;;;;;8.07;3.67;;;;;;;;;;5055475;28;20056;-62
2022/04/13 11:32:10;;;;;;;9.30;3.28;;;;;;;;;;5052762;28;20033;-63
2022/04/13 11:34:45;;;;;;;8.73;3.60;;;;;;;;;;5046686;28;20052;-62
2022/04/13 11:37:19;;;;;;;5.28;2.90;;;;;;;;;;5056991;28;20422;-64
2022/04/13 11:39:50;;;;;;;6.43;2.92;;;;;;;;;;5052094;28;20045;-63
2022/04/13 11:42:28;;;;;;;7.30;3.40;;;;;;;;;;5054272;28;20071;-63
2022/04/13 11:45:05;;;;;;;6.25;2.60;;;;;;;;;;5052270;28;20363;-62
2022/04/13 11:47:53;;;;;;;5.75;2.30;;;;;;;;;;5051832;28;20128;-60
2022/04/13 11:50:19;;;;;;;5.55;2.13;;;;;;;;;;5070281;28;20538;-63
2022/04/13 11:52:49;;;;;;;7.18;2.75;;;;;;;;;;5063344;28;20040;-62
2022/04/13 11:55:23;;;;;;;7.57;2.67;;;;;;;;;;5057878;28;20037;-62
2022/04/13 11:58:04;;;;;;;8.35;2.55;;;;;;;;;;5060200;28;20040;-63
2022/04/13 12:00:37;;;;;;;6.32;2.53;;;;;;;;;;5058651;28;20059;-61
2022/04/13 12:03:06;;;;;;;5.35;2.55;;;;;;;;;;5064933;28;20028;-63
2022/04/13 12:05:32;;;;;;;5.45;2.17;;;;;;;;;;5082396;28;20052;-62
2022/04/13 12:07:59;;;;;;;6.40;1.90;;;;;;;;;;5062734;28;20052;-61
2022/04/13 12:10:25;;;;;;;7.25;2.28;;;;;;;;;;5062349;28;20494;-61
2022/04/13 12:12:52;;;;;;;5.65;2.42;;;;;;;;;;5058295;28;20044;-61
2022/04/13 12:15:19;;;;;;;3.35;2.15;;;;;;;;;;5060814;28;20128;-63
2022/04/13 12:17:46;;;;;;;10.68;3.70;;;;;;;;;;5061954;28;20032;-63
2022/04/13 12:20:28;;;;;;;7.82;4.05;;;;;;;;;;5063349;28;20399;-63
2022/04/13 12:22:57;;;;;;;7.45;3.53;;;;;;;;;;5062813;28;20195;-63
2022/04/13 12:25:23;;;;;;;7.50;3.38;;;;;;;;;;5065907;28;20136;-63
2022/04/13 12:28:03;;;;;;;6.63;2.53;;;;;;;;;;5063197;28;20106;-62
2022/04/13 12:30:29;;;;;;;9.38;3.30;;;;;;;;;;5058788;28;20083;-63
2022/04/13 12:32:55;;;;;;;5.55;2.75;;;;;;;;;;5059026;28;20068;-63
2022/04/13 12:35:21;;;;;;;8.13;3.30;;;;;;;;;;5040940;28;20082;-63
2022/04/13 12:37:55;;;;;;;9.27;2.90;;;;;;;;;;5055373;28;20876;-62
2022/04/13 12:40:25;;;;;;;7.32;2.80;;;;;;;;;;5051368;28;20075;-60
2022/04/13 12:42:52;;;;;;;8.18;3.03;;;;;;;;;;5057601;28;20071;-61
2022/04/13 12:45:18;;;;;;;7.97;2.03;;;;;;;;;;5060608;28;20045;-61
2022/04/13 12:47:45;;;;;;;3.67;0.80;;;;;;;;;;5041341;28;20045;-61
2022/04/13 12:50:13;;;;;;;3.63;0.50;;;;;;;;;;5054263;28;20040;-62
2022/04/13 12:52:39;;;;;;;5.63;0.60;;;;;;;;;;5069241;28;20531;-62
2022/04/13 12:55:05;;;;;;;5.30;0.75;;;;;;;;;;5058635;28;20051;-62
2022/04/13 12:57:32;;;;;;;4.97;0.75;;;;;;;;;;5059972;28;20041;-60
2022/04/13 12:59:58;;;;;;;4.90;0.80;;;;;;;;;;5063117;28;20114;-62
2022/04/13 13:02:24;;;;;;;6.63;0.95;;;;;;;;;;5066284;28;20048;-63
2022/04/13 13:04:50;;;;;;;6.40;1.00;;;;;;;;;;5056402;28;20041;-63
2022/04/13 13:07:16;;;;;;;9.85;1.38;;;;;;;;;;5044353;28;20372;-62
2022/04/13 13:09:51;;;;;;;5.93;1.17;;;;;;;;;;5059883;28;20120;-63
2022/04/13 13:12:18;;;;;;;6.78;1.45;;;;;;;;;;5056671;28;20395;-63
2022/04/13 13:14:48;;;;;;;8.00;1.95;;;;;;;;;;5054259;28;20042;-62
2022/04/13 13:17:15;;;;;;;8.50;2.22;;;;;;;;;;5057475;28;20044;-62
2022/04/13 13:19:41;;;;;;;7.70;2.30;;;;;;;;;;5060842;28;20065;-62
2022/04/13 13:22:11;;;;;;;8.68;2.45;;;;;;;;;;5058298;28;20064;-61
2022/04/13 13:24:47;;;;;;;7.70;2.58;;;;;;;;;;5055085;28;20040;-62
2022/04/13 13:27:14;;;;;;;7.65;2.15;;;;;;;;;;5061329;28;20054;-62
2022/04/13 13:29:44;;;;;;;9.98;2.50;;;;;;;;;;5054752;28;20406;-63
2022/04/13 13:32:14;;;;;;;7.60;2.78;;;;;;;;;;5061456;28;20444;-62
2022/04/13 13:34:48;;;;;;;5.97;2.75;;;;;;;;;;5044285;28;20083;-61
2022/04/13 13:37:27;;;;;;;7.05;1.50;;;;;;;;;;5044827;28;20187;-61
2022/04/13 13:39:53;;;;;;;4.75;1.10;;;;;;;;;;5053469;28;20045;-63
2022/04/13 13:42:19;;;;;;;4.80;0.68;;;;;;;;;;5075930;28;20448;-61
2022/04/13 13:44:45;;;;;;;9.95;1.45;;;;;;;;;;5064545;28;20115;-61
2022/04/13 13:47:11;;;;;;;7.38;1.15;;;;;;;;;;5054628;28;20044;-62
2022/04/13 13:49:37;;;;;;;6.00;1.23;;;;;;;;;;5059261;28;20040;-62
2022/04/13 13:52:03;;;;;;;7.00;1.05;;;;;;;;;;5052908;28;20087;-62
2022/04/13 13:54:32;;;;;;;8.30;1.40;;;;;;;;;;5050206;28;20041;-61
2022/04/13 13:57:01;;;;;;;7.35;1.33;;;;;;;;;;5054171;28;20052;-63
2022/04/13 13:59:27;;;;;;;6.07;1.30;;;;;;;;;;5053866;28;20045;-62
2022/04/13 14:01:53;;;;;;;8.25;1.73;;;;;;;;;;5062187;28;20122;-63
2022/04/13 14:04:19;;;;;;;6.75;2.00;;;;;;;;;;5076923;28;20063;-62
2022/04/13 14:06:45;;;;;;;8.93;2.08;;;;;;;;;;5054842;28;20495;-63
2022/04/13 14:09:11;;;;;;;10.20;2.42;;;;;;;;;;5054666;28;20049;-61
2022/04/13 14:11:37;;;;;;;10.65;2.67;;;;;;;;;;5045271;28;20097;-61
2022/04/13 14:14:03;;;;;;;9.90;3.10;;;;;;;;;;5061363;28;20040;-62
2022/04/13 14:16:30;;;;;;;11.73;3.25;;;;;;;;;;5062344;28;20045;-60
2022/04/13 14:18:56;;;;;;;8.57;2.78;;;;;;;;;;5063928;28;20063;-61
2022/04/13 14:21:22;;;;;;;10.27;2.75;;;;;;;;;;5058068;28;20044;-61
2022/04/13 14:23:48;;;;;;;11.52;2.75;;;;;;;;;;5061176;28;20051;-60
2022/04/13 14:26:14;;;;;;;8.88;2.85;;;;;;;;;;5057054;28;20076;-62